CheckWX is a tool to help pilots better visualize weather data.  It is not intended as a substitute for an official pre-flight weather briefing.

01:04:44 UTC

05U METAR
Eureka Airport
Eureka, Nevada, USA
Current

30 mins ago

K05U 200035Z AUTO 16013KT 10SM CLR 31/M08 A3010 RMK A01
Observed
Aug-20 @ 00:35 UTC
Wind
  • 160° at 13 KTS
Visibility
10 SM
Flight Rules
VFR
Cloud Levels
  • Clear skies
Temperature
31°C / 88°F
Dewpoint
-8°C / 18°F
Humidity
7%
Altimeter
30.1" Hg
Pressure
1019.32 hPa
Previous

1 hour ago

K05U 192355Z AUTO 16010G19KT 10SM CLR 32/M11 A3011 RMK A01
Observed
Aug-19 @ 23:55 UTC
Wind
  • 160° at 10 KTS
  • Gusting to 19 KTS
Visibility
10 SM
Flight Rules
VFR
Cloud Levels
  • Clear skies
Temperature
32°C / 90°F
Dewpoint
-11°C / 12°F
Humidity
5%
Altimeter
30.11" Hg
Pressure
1019.62 hPa
Previous

1 hour ago

K05U 192335Z AUTO 14009KT 10SM CLR 32/M09 A3011 RMK A01
Observed
Aug-19 @ 23:35 UTC
Wind
  • 140° at 9 KTS
Visibility
10 SM
Flight Rules
VFR
Cloud Levels
  • Clear skies
Temperature
32°C / 90°F
Dewpoint
-9°C / 16°F
Humidity
6%
Altimeter
30.11" Hg
Pressure
1019.62 hPa